Time;durP1;ratioP1;P1;durP2;ratioP2;P2;SDS_P1;SDS_P2;PMS_P1;PMS_P2;Temp;Humidity;BMP_temperature;BMP_pressure;BME280_temperature;BME280_humidity;BME280_pressure;Samples;Min_cycle;Max_cycle;Signal;HPM_P1;HPM_P2
2022/12/01 00:00:28;;;;;;;0.60;0.60;;;;;;;2.19;92.39;97373.69;29395;256;63009;-67
2022/12/01 00:01:01;;;;;;;0.50;0.50;;;;;;;2.20;92.48;97374.50;29395;226;63014;-66
2022/12/01 00:01:32;;;;;;;0.60;0.60;;;;;;;2.20;92.48;97372.66;29395;311;63009;-55
2022/12/01 00:02:03;;;;;;;0.60;0.60;;;;;;;2.21;92.58;97378.81;29395;271;63004;-55
2022/12/01 00:02:34;;;;;;;0.60;0.60;;;;;;;2.21;92.17;97378.81;29395;218;63008;-55
2022/12/01 00:03:09;;;;;;;0.70;0.70;;;;;;;2.20;92.22;97369.16;29394;209;64009;-58
2022/12/01 00:03:40;;;;;;;0.60;0.60;;;;;;;2.20;92.42;97374.50;29395;206;63020;-66
2022/12/01 00:04:12;;;;;;;0.60;0.60;;;;;;;2.20;92.86;97375.31;29395;220;63005;-67
2022/12/01 00:04:43;;;;;;;0.60;0.60;;;;;;;2.20;92.78;97369.16;29395;211;63009;-55
2022/12/01 00:05:15;;;;;;;0.60;0.60;;;;;;;2.20;92.78;97369.16;29395;197;63005;-66
2022/12/01 00:05:46;;;;;;;0.60;0.60;;;;;;;2.20;92.13;97369.97;29395;238;63009;-64
2022/12/01 00:06:20;;;;;;;0.60;0.60;;;;;;;2.21;92.71;97370.78;29395;216;63005;-60
2022/12/01 00:06:51;;;;;;;0.60;0.60;;;;;;;2.22;92.69;97377.78;29395;233;63009;-54
2022/12/01 00:07:23;;;;;;;0.60;0.60;;;;;;;2.21;92.04;97365.44;29394;253;64009;-63
2022/12/01 00:07:56;;;;;;;0.60;0.60;;;;;;;2.21;92.10;97376.97;29395;200;63009;-66
2022/12/01 00:08:31;;;;;;;0.60;0.60;;;;;;;2.21;92.16;97370.78;29395;240;63004;-63
2022/12/01 00:10:41;;;;;;;0.60;0.60;;;;;;;2.20;91.64;97374.50;29395;213;63009;-65
2022/12/01 00:11:12;;;;;;;0.60;0.60;;;;;;;2.19;91.68;97373.69;29395;231;63005;-65
2022/12/01 00:11:44;;;;;;;0.70;0.70;;;;;;;2.18;91.84;97365.88;29394;212;64013;-54
2022/12/01 00:12:15;;;;;;;0.52;0.52;;;;;;;2.17;91.97;97373.09;29395;209;63005;-65
2022/12/01 00:12:46;;;;;;;0.60;0.60;;;;;;;2.17;91.62;97374.97;29395;278;63009;-65
2022/12/01 00:13:18;;;;;;;0.60;0.60;;;;;;;2.16;91.51;97370.66;29395;245;63005;-63
2022/12/01 00:13:49;;;;;;;0.60;0.60;;;;;;;2.15;91.34;97374.38;29395;244;63009;-66
2022/12/01 00:14:21;;;;;;;0.60;0.60;;;;;;;2.14;91.66;97375.41;29395;237;63009;-65
2022/12/01 00:14:59;;;;;;;0.57;0.57;;;;;;;2.14;91.73;97375.41;29395;222;63009;-65
2022/12/01 00:15:36;;;;;;;0.60;0.60;;;;;;;2.14;92.15;97372.72;29395;210;63004;-54
2022/12/01 00:16:15;;;;;;;0.60;0.60;;;;;;;2.12;92.24;97367.59;29395;225;63009;-65
2022/12/01 00:16:47;;;;;;;0.60;0.60;;;;;;;2.12;92.28;97377.50;29394;282;64008;-65
2022/12/01 00:17:18;;;;;;;0.60;0.60;;;;;;;2.13;92.74;97376.44;29395;224;63009;-63
2022/12/01 00:17:49;;;;;;;0.60;0.60;;;;;;;2.11;92.45;97370.50;29395;206;63005;-63
2022/12/01 00:18:20;;;;;;;0.98;0.98;;;;;;;2.11;92.60;97373.19;29395;212;63009;-63
2022/12/01 00:18:52;;;;;;;0.60;0.60;;;;;;;2.09;92.16;97367.25;29395;235;63005;-54
2022/12/01 00:19:25;;;;;;;0.60;0.60;;;;;;;2.08;91.86;97371.00;29395;288;63009;-64
2022/12/01 00:19:56;;;;;;;0.60;0.60;;;;;;;2.10;92.46;97368.88;29395;238;63005;-66
2022/12/01 00:20:28;;;;;;;0.60;0.60;;;;;;;2.09;92.35;97369.91;29395;238;63009;-54
2022/12/01 00:21:01;;;;;;;0.60;0.60;;;;;;;2.10;92.20;97371.56;29394;206;64009;-66
2022/12/01 00:21:32;;;;;;;0.70;0.70;;;;;;;2.10;92.54;97375.03;29395;202;63009;-66
2022/12/01 00:22:04;;;;;;;0.57;0.57;;;;;;;2.10;92.13;97371.56;29395;226;63014;-67
2022/12/01 00:22:36;;;;;;;0.60;0.60;;;;;;;2.12;92.27;97372.13;29395;202;63009;-55
2022/12/01 00:23:07;;;;;;;0.60;0.60;;;;;;;2.13;92.23;97381.81;29395;235;63004;-65
2022/12/01 00:23:41;;;;;;;0.60;0.60;;;;;;;2.13;92.60;97363.87;29395;224;63009;-55
2022/12/01 00:24:14;;;;;;;0.60;0.60;;;;;;;2.15;93.15;97371.69;29395;197;63004;-64
2022/12/01 00:24:46;;;;;;;0.60;0.60;;;;;;;2.16;92.98;97376.00;29395;296;63008;-64
2022/12/01 00:25:19;;;;;;;0.60;0.60;;;;;;;2.15;93.25;97366.34;29395;203;63005;-65
2022/12/01 00:25:53;;;;;;;0.60;0.60;;;;;;;2.15;92.67;97375.19;29396;202;63009;-67
2022/12/01 00:26:26;;;;;;;0.73;0.73;;;;;;;2.13;92.68;97374.59;29395;235;64009;-54
2022/12/01 00:26:57;;;;;;;0.60;0.60;;;;;;;2.11;92.47;97370.50;29396;203;63009;-65
2022/12/01 00:27:30;;;;;;;0.60;0.60;;;;;;;2.10;92.50;97369.69;29396;274;63005;-54
2022/12/01 00:28:02;;;;;;;0.62;0.62;;;;;;;2.13;92.84;97374.59;29395;237;64013;-65
2022/12/01 00:28:33;;;;;;;0.73;0.73;;;;;;;2.16;93.13;97371.47;29396;217;63005;-64
2022/12/01 00:29:04;;;;;;;0.60;0.60;;;;;;;2.18;93.70;97371.25;29396;292;63009;-65
2022/12/01 00:29:36;;;;;;;0.60;0.60;;;;;;;2.18;93.56;97376.59;29396;218;63009;-64
2022/12/01 00:30:11;;;;;;;0.57;0.57;;;;;;;2.15;92.45;97377.03;29396;218;63016;-64
2022/12/01 00:30:43;;;;;;;0.60;0.60;;;;;;;2.13;93.05;97369.25;29396;273;63004;-66
2022/12/01 00:31:14;;;;;;;0.60;0.60;;;;;;;2.14;92.66;97375.41;29396;219;63009;-66
2022/12/01 00:31:45;;;;;;;0.60;0.60;;;;;;;2.13;93.12;97363.87;29396;215;63000;-66
2022/12/01 00:32:17;;;;;;;0.60;0.60;;;;;;;2.14;92.92;97368.19;29395;197;64013;-64
2022/12/01 00:32:48;;;;;;;0.60;0.60;;;;;;;2.15;92.55;97366.34;29396;252;63005;-63
2022/12/01 00:33:20;;;;;;;0.60;0.60;;;;;;;2.16;92.88;97370.66;29396;307;63009;-65
2022/12/01 00:33:52;;;;;;;0.60;0.60;;;;;;;2.17;92.74;97364.25;29396;202;63005;-63
2022/12/01 00:34:25;;;;;;;0.60;0.60;;;;;;;2.17;92.66;97369.59;29395;217;64013;-64
2022/12/01 00:34:56;;;;;;;0.60;0.60;;;;;;;2.15;92.41;97367.16;29396;197;63005;-65
2022/12/01 00:35:29;;;;;;;0.60;0.60;;;;;;;2.15;92.20;97374.38;29396;225;63009;-63
2022/12/01 00:36:01;;;;;;;0.60;0.60;;;;;;;2.15;92.77;97366.34;29396;279;63010;-66
2022/12/01 00:36:32;;;;;;;0.60;0.60;;;;;;;2.15;92.09;97377.03;29396;203;63009;-64
2022/12/01 00:37:06;;;;;;;0.60;0.60;;;;;;;2.15;92.46;97369.84;29396;231;63004;-63
2022/12/01 00:37:37;;;;;;;0.60;0.60;;;;;;;2.15;92.46;97372.50;29396;219;63009;-53
2022/12/01 00:38:09;;;;;;;0.60;0.60;;;;;;;2.17;92.68;97370.41;29396;225;63004;-65
2022/12/01 00:38:41;;;;;;;0.60;0.60;;;;;;;2.18;92.90;97371.25;29396;204;63009;-65
2022/12/01 00:39:12;;;;;;;0.60;0.60;;;;;;;2.19;92.71;97372.88;29396;281;63004;-65
2022/12/01 00:39:43;;;;;;;0.60;0.60;;;;;;;2.18;92.19;97369.38;29395;198;64013;-65
2022/12/01 00:40:14;;;;;;;0.60;0.60;;;;;;;2.18;92.67;97376.59;29396;212;63015;-64
2022/12/01 00:40:45;;;;;;;0.60;0.60;;;;;;;2.19;92.59;97375.53;29396;244;63009;-64
2022/12/01 00:41:17;;;;;;;0.60;0.60;;;;;;;2.18;92.81;97371.25;29396;222;63005;-64
2022/12/01 00:41:51;;;;;;;0.60;0.60;;;;;;;2.17;92.62;97374.97;29396;262;63009;-65
2022/12/01 00:42:23;;;;;;;0.60;0.60;;;;;;;2.16;92.73;97362.63;29396;211;63005;-64
2022/12/01 00:42:54;;;;;;;0.60;0.60;;;;;;;2.15;92.81;97371.69;29396;202;63009;-65
2022/12/01 00:43:27;;;;;;;0.60;0.60;;;;;;;2.16;92.60;97366.09;29396;214;63005;-66
2022/12/01 00:43:58;;;;;;;0.60;0.60;;;;;;;2.17;92.83;97364.25;29396;200;63009;-64
2022/12/01 00:44:29;;;;;;;0.60;0.60;;;;;;;2.18;92.82;97371.25;29396;320;63004;-62
2022/12/01 00:45:10;;;;;;;0.60;0.60;;;;;;;2.19;93.21;97370.19;29395;213;64013;-64
2022/12/01 00:45:42;;;;;;;0.60;0.60;;;;;;;2.19;93.40;97365.66;29396;271;63004;-64
2022/12/01 00:46:15;;;;;;;0.60;0.60;;;;;;;2.20;92.82;97372.66;29396;419;63018;-64
2022/12/01 00:46:47;;;;;;;0.68;0.68;;;;;;;2.21;92.91;97368.09;29396;234;63004;-54
2022/12/01 00:47:19;;;;;;;0.60;0.60;;;;;;;2.21;92.88;97365.44;29396;288;63008;-54
2022/12/01 00:47:51;;;;;;;0.50;0.50;;;;;;;2.22;93.18;97372.41;29396;228;63005;-65
2022/12/01 00:48:26;;;;;;;0.60;0.60;;;;;;;2.19;92.97;97370.19;29396;213;63009;-54
2022/12/01 00:48:57;;;;;;;0.52;0.52;;;;;;;2.20;93.17;97369.16;29396;256;63005;-54
2022/12/01 00:49:28;;;;;;;0.60;0.60;;;;;;;2.19;93.22;97367.50;29396;203;63009;-63
2022/12/01 00:50:00;;;;;;;0.60;0.60;;;;;;;2.19;93.59;97368.34;29396;218;63010;-54
2022/12/01 00:50:32;;;;;;;0.60;0.60;;;;;;;2.15;93.22;97371.69;29395;325;64013;-66
2022/12/01 00:51:04;;;;;;;0.60;0.60;;;;;;;2.13;92.81;97371.09;29396;239;63007;-54
2022/12/01 00:51:36;;;;;;;0.60;0.60;;;;;;;2.11;92.93;97365.16;29396;255;63009;-61
2022/12/01 00:52:08;;;;;;;4.25;1.40;;;;;;;2.15;93.14;97371.69;29396;240;63004;-62
2022/12/01 00:52:39;;;;;;;0.60;0.60;;;;;;;2.18;93.04;97371.25;29396;206;63009;-65
2022/12/01 00:53:11;;;;;;;0.60;0.60;;;;;;;2.17;92.80;97370.41;29396;196;63004;-65
2022/12/01 00:53:42;;;;;;;0.60;0.60;;;;;;;2.18;92.03;97364.03;29396;209;63009;-67
2022/12/01 00:54:13;;;;;;;0.60;0.60;;;;;;;2.18;92.08;97366.69;29396;245;63005;-66
2022/12/01 00:54:45;;;;;;;0.60;0.60;;;;;;;2.17;91.95;97373.09;29396;203;63009;-64
2022/12/01 00:55:16;;;;;;;0.60;0.60;;;;;;;2.17;91.93;97372.28;29396;203;63005;-67
2022/12/01 00:55:48;;;;;;;0.70;0.70;;;;;;;2.17;92.02;97372.28;29395;279;64014;-64
2022/12/01 00:56:20;;;;;;;0.60;0.60;;;;;;;2.17;92.07;97374.97;29396;215;63017;-65
2022/12/01 00:56:52;;;;;;;0.60;0.60;;;;;;;2.16;92.08;97368.78;29396;207;63009;-65
2022/12/01 00:57:24;;;;;;;0.60;0.60;;;;;;;2.15;92.50;97372.50;29396;217;63005;-64
2022/12/01 00:57:56;;;;;;;0.60;0.60;;;;;;;2.18;92.07;97376.59;29396;231;63009;-66
2022/12/01 00:58:27;;;;;;;0.60;0.60;;;;;;;2.18;91.92;97365.88;29396;306;63009;-67
2022/12/01 00:58:59;;;;;;;0.57;0.57;;;;;;;2.18;91.80;97368.56;29396;238;63009;-54
2022/12/01 00:59:30;;;;;;;0.60;0.60;;;;;;;2.19;91.44;97367.50;29395;203;64022;-66
2022/12/01 01:00:04;;;;;;;0.65;0.65;;;;;;;2.18;91.59;97371.25;29396;214;63017;-65
2022/12/01 01:00:38;;;;;;;0.50;0.50;;;;;;;2.17;91.69;97364.25;29396;237;63014;-66
2022/12/01 01:01:11;;;;;;;0.60;0.60;;;;;;;2.16;91.12;97367.97;29396;205;63008;-66
2022/12/01 01:01:45;;;;;;;0.60;0.60;;;;;;;2.14;91.46;97364.69;29396;225;63004;-64
2022/12/01 01:02:16;;;;;;;0.60;0.60;;;;;;;2.14;91.34;97370.06;29396;222;63009;-67
2022/12/01 01:02:48;;;;;;;0.60;0.60;;;;;;;2.11;91.04;97370.50;29396;217;63005;-65
2022/12/01 01:03:20;;;;;;;1.25;1.25;;;;;;;2.12;91.03;97372.97;29396;254;63009;-64
2022/12/01 01:03:54;;;;;;;0.60;0.60;;;;;;;2.13;91.75;97371.91;29396;216;63005;-66
2022/12/01 01:04:29;;;;;;;0.60;0.60;;;;;;;2.14;91.43;97370.87;29395;252;64013;-54
2022/12/01 01:05:00;;;;;;;0.60;0.60;;;;;;;2.15;91.48;97369.00;29396;234;63005;-65
2022/12/01 01:05:38;;;;;;;0.60;0.60;;;;;;;2.13;91.02;97371.91;29396;202;63009;-65
2022/12/01 01:06:11;;;;;;;0.60;0.60;;;;;;;2.10;91.29;97364.34;29396;264;63004;-66
2022/12/01 01:06:42;;;;;;;0.70;0.70;;;;;;;2.10;90.91;97371.56;29396;232;63009;-55
2022/12/01 01:07:14;;;;;;;0.60;0.60;;;;;;;2.10;91.34;97368.88;29395;275;64009;-65
2022/12/01 01:07:45;;;;;;;0.70;0.70;;;;;;;2.09;91.02;97372.59;29395;223;64013;-65
2022/12/01 01:08:16;;;;;;;0.85;0.85;;;;;;;2.11;91.25;97370.50;29396;243;63011;-63
2022/12/01 01:08:48;;;;;;;0.60;0.60;;;;;;;2.13;91.19;97365.75;29396;316;63008;-62
2022/12/01 01:09:19;;;;;;;0.60;0.60;;;;;;;2.11;91.21;97365.97;29396;198;63005;-66
2022/12/01 01:09:50;;;;;;;1.35;1.35;;;;;;;2.12;90.92;97374.81;29396;235;64014;-54
2022/12/01 01:10:21;;;;;;;0.60;0.60;;;;;;;2.11;91.33;97370.50;29397;235;63005;-65
2022/12/01 01:10:52;;;;;;;0.60;0.60;;;;;;;2.10;90.92;97374.22;29397;235;63009;-65
2022/12/01 01:11:24;;;;;;;0.50;0.50;;;;;;;2.08;90.90;97371.78;29397;244;63005;-62
2022/12/01 01:11:57;;;;;;;0.60;0.60;;;;;;;2.07;91.28;97370.19;29397;197;63009;-66
2022/12/01 01:12:28;;;;;;;0.60;0.60;;;;;;;2.10;91.09;97374.22;29397;208;63005;-64
2022/12/01 01:13:00;;;;;;;5.78;3.08;;;;;;;2.11;91.12;97375.88;29396;291;64013;-65
2022/12/01 01:13:32;;;;;;;0.60;0.60;;;;;;;2.13;91.22;97373.78;29396;213;63010;-64
2022/12/01 01:14:03;;;;;;;1.15;1.15;;;;;;;2.13;90.75;97369.25;29397;237;63009;-64
2022/12/01 01:14:36;;;;;;;0.60;0.60;;;;;;;2.12;90.55;97372.97;29397;206;63004;-55
2022/12/01 01:15:09;;;;;;;0.60;0.60;;;;;;;2.12;90.85;97369.47;29396;256;64013;-65
2022/12/01 01:15:40;;;;;;;0.50;0.50;;;;;;;2.12;90.85;97367.59;29397;215;63009;-54
2022/12/01 01:16:20;;;;;;;0.60;0.60;;;;;;;2.11;90.75;97370.50;29397;206;63018;-54
2022/12/01 01:16:52;;;;;;;0.60;0.60;;;;;;;2.10;90.38;97368.88;29441;232;63015;-55
2022/12/01 01:17:24;;;;;;;0.60;0.60;;;;;;;2.07;90.62;97366.69;29397;227;63009;-64
2022/12/01 01:17:56;;;;;;;0.60;0.60;;;;;;;2.08;90.52;97373.66;29396;239;64009;-64
2022/12/01 01:18:28;;;;;;;0.70;0.70;;;;;;;2.07;91.00;97367.50;29397;213;63009;-55
2022/12/01 01:19:00;;;;;;;0.60;0.60;;;;;;;2.08;91.05;97376.34;29397;294;63005;-66
2022/12/01 01:19:31;;;;;;;0.60;0.60;;;;;;;2.08;90.76;97376.34;29397;202;63009;-64
2022/12/01 01:20:05;;;;;;;0.60;0.60;;;;;;;2.08;91.06;97371.78;29397;232;63005;-66
2022/12/01 01:20:38;;;;;;;0.60;0.60;;;;;;;2.16;91.07;97378.69;29397;237;63014;-64
2022/12/01 01:21:15;;;;;;;0.80;0.80;;;;;;;2.16;90.17;97379.50;29397;226;63004;-65
2022/12/01 01:21:47;;;;;;;0.60;0.60;;;;;;;2.17;89.90;97380.31;29397;266;63009;-61
2022/12/01 01:22:19;;;;;;;0.60;0.60;;;;;;;2.18;90.23;97376.59;29396;207;63004;-64
2022/12/01 01:22:50;;;;;;;0.60;0.60;;;;;;;2.18;90.09;97373.91;29397;215;63023;-65
2022/12/01 01:23:23;;;;;;;0.60;0.60;;;;;;;2.18;90.44;97377.41;29395;214;64009;-65
2022/12/01 01:23:55;;;;;;;0.60;0.60;;;;;;;2.18;89.86;97376.59;29397;218;63008;-62
2022/12/01 01:24:26;;;;;;;0.60;0.60;;;;;;;2.17;90.09;97380.31;29396;212;63017;-54
2022/12/01 01:24:57;;;;;;;0.60;0.60;;;;;;;2.17;89.67;97374.97;29396;232;63011;-65
2022/12/01 01:25:31;;;;;;;0.60;0.60;;;;;;;2.16;89.64;97370.66;29395;199;64009;-65
2022/12/01 01:26:13;;;;;;;0.60;0.60;;;;;;;2.15;89.63;97377.03;29396;213;63009;-63
2022/12/01 01:26:45;;;;;;;0.60;0.60;;;;;;;2.14;89.27;97378.09;29396;206;63005;-63
2022/12/01 01:27:21;;;;;;;0.60;0.60;;;;;;;2.21;89.20;97381.50;29395;237;64013;-54
2022/12/01 01:27:53;;;;;;;0.60;0.60;;;;;;;2.21;88.50;97381.50;29396;201;63005;-65
2022/12/01 01:28:25;;;;;;;0.60;0.60;;;;;;;2.21;88.40;97386.84;29396;243;63009;-64
2022/12/01 01:29:01;;;;;;;0.60;0.60;;;;;;;2.17;88.02;97380.31;29396;225;63004;-66
2022/12/01 01:29:32;;;;;;;0.60;0.60;;;;;;;2.13;88.09;97387.16;29396;261;63009;-65
2022/12/01 01:30:05;;;;;;;0.60;0.60;;;;;;;2.09;88.50;97377.94;29395;234;64009;-66
2022/12/01 01:30:39;;;;;;;0.60;0.60;;;;;;;2.08;88.94;97387.06;29396;202;63009;-65
2022/12/01 01:31:13;;;;;;;0.60;0.60;;;;;;;2.08;89.37;97384.38;29396;227;63004;-67
2022/12/01 01:31:44;;;;;;;0.60;0.60;;;;;;;2.06;89.25;97381.91;29396;231;63019;-65
2022/12/01 01:32:15;;;;;;;0.60;0.60;;;;;;;2.06;89.29;97383.78;29395;197;64009;-64
2022/12/01 01:32:47;;;;;;;0.60;0.60;;;;;;;2.06;89.27;97383.78;29396;254;63008;-63
2022/12/01 01:33:20;;;;;;;0.60;0.60;;;;;;;2.08;89.78;97384.38;29396;232;63005;-64
2022/12/01 01:33:52;;;;;;;0.60;0.60;;;;;;;2.08;89.32;97381.69;29396;212;63009;-65
2022/12/01 01:34:23;;;;;;;0.60;0.60;;;;;;;2.07;89.50;97380.06;29396;202;63005;-63
2022/12/01 01:34:58;;;;;;;0.60;0.60;;;;;;;2.07;89.53;97380.06;29395;224;64013;-65
2022/12/01 01:35:29;;;;;;;0.60;0.60;;;;;;;2.05;89.68;97377.63;29395;339;64009;-65
2022/12/01 01:36:01;;;;;;;1.05;1.05;;;;;;;2.10;89.97;97384.94;29396;214;63009;-66
2022/12/01 01:36:33;;;;;;;0.68;0.68;;;;;;;2.19;90.05;97388.94;29396;197;63004;-65
2022/12/01 01:37:04;;;;;;;0.60;0.60;;;;;;;2.22;89.05;97383.12;29396;224;63009;-66
2022/12/01 01:37:36;;;;;;;0.60;0.60;;;;;;;2.20;88.71;97379.84;29396;229;63008;-65
2022/12/01 01:38:10;;;;;;;0.60;0.60;;;;;;;2.15;88.78;97387.75;29396;289;63009;-66
2022/12/01 01:38:42;;;;;;;0.70;0.70;;;;;;;2.11;89.00;97382.03;29396;227;63004;-63
2022/12/01 01:39:16;;;;;;;0.60;0.60;;;;;;;2.10;89.19;97387.59;29395;202;64013;-63
2022/12/01 01:39:47;;;;;;;0.60;0.60;;;;;;;2.08;88.97;97385.16;29395;227;64009;-66
2022/12/01 01:40:19;;;;;;;0.60;0.60;;;;;;;2.08;88.94;97381.69;29396;313;63009;-66
2022/12/01 01:40:50;;;;;;;0.60;0.60;;;;;;;2.09;89.36;97391.34;29396;252;63005;-64
2022/12/01 01:41:23;;;;;;;0.60;0.60;;;;;;;2.09;89.40;97378.75;29396;303;63009;-66
2022/12/01 01:41:54;;;;;;;0.70;0.70;;;;;;;2.08;88.77;97376.34;29396;246;63005;-64
2022/12/01 01:42:25;;;;;;;0.60;0.60;;;;;;;2.05;88.25;97388.31;29395;219;64013;-65
2022/12/01 01:42:57;;;;;;;0.60;0.60;;;;;;;2.03;88.38;97379.69;29396;199;63004;-65
2022/12/01 01:44:01;;;;;;;0.60;0.60;;;;;;;2.07;88.60;97385.41;29396;233;63009;-67
2022/12/01 01:44:57;;;;;;;0.60;0.60;;;;;;;2.11;88.45;97381.22;29395;278;64009;-63
2022/12/01 01:45:29;;;;;;;0.70;0.70;;;;;;;2.10;88.21;97387.59;29396;202;63008;-67
2022/12/01 01:46:00;;;;;;;0.60;0.60;;;;;;;2.10;88.45;97382.25;29396;233;63013;-63
2022/12/01 01:46:33;;;;;;;0.70;0.70;;;;;;;2.09;88.53;97386.78;29396;270;63017;-66
2022/12/01 01:47:05;;;;;;;0.60;0.60;;;;;;;2.10;88.78;97384.94;29396;211;63001;-67
2022/12/01 01:47:39;;;;;;;0.60;0.60;;;;;;;2.10;88.75;97384.94;29396;202;63009;-65
2022/12/01 01:48:13;;;;;;;0.60;0.60;;;;;;;2.11;88.94;97381.22;29396;218;63005;-63
2022/12/01 01:48:52;;;;;;;0.62;0.62;;;;;;;2.09;88.78;97383.31;29396;206;63009;-66
2022/12/01 01:49:23;;;;;;;0.60;0.60;;;;;;;2.07;88.84;97385.41;29396;202;63005;-61
2022/12/01 01:49:59;;;;;;;0.57;0.57;;;;;;;2.06;88.49;97384.59;29395;218;64013;-66
2022/12/01 01:50:31;;;;;;;0.60;0.60;;;;;;;2.03;88.90;97374.34;29395;232;64009;-67
2022/12/01 01:51:03;;;;;;;0.60;0.60;;;;;;;2.00;88.21;97385.50;29396;242;63009;-65
2022/12/01 01:51:41;;;;;;;0.70;0.70;;;;;;;2.01;87.95;97382.59;29396;224;63004;-63
2022/12/01 01:52:13;;;;;;;0.60;0.60;;;;;;;2.04;88.39;97381.31;29395;204;64013;-67
2022/12/01 01:52:49;;;;;;;0.60;0.60;;;;;;;2.07;88.40;97385.41;29395;228;64001;-63
2022/12/01 01:53:21;;;;;;;0.60;0.60;;;;;;;2.05;88.44;97384.81;29396;196;63021;-64
2022/12/01 01:53:59;;;;;;;0.60;0.60;;;;;;;2.05;88.64;97382.16;29396;202;63010;-66
2022/12/01 01:54:36;;;;;;;0.60;0.60;;;;;;;2.03;88.57;97389.59;29396;230;63009;-66
2022/12/01 01:55:08;;;;;;;0.60;0.60;;;;;;;1.99;89.05;97383.88;29375;215;63005;-65
2022/12/01 01:55:40;;;;;;;0.60;0.60;;;;;;;1.99;88.83;97386.53;29396;246;63009;-65
2022/12/01 01:56:11;;;;;;;0.60;0.60;;;;;;;1.99;89.25;97383.88;29396;225;63005;-67
2022/12/01 01:56:44;;;;;;;0.60;0.60;;;;;;;2.00;89.15;97385.50;29396;269;63009;-67
2022/12/01 01:57:30;;;;;;;0.60;0.60;;;;;;;1.99;89.53;97390.03;29396;219;63005;-66
2022/12/01 01:58:07;;;;;;;0.60;0.60;;;;;;;1.99;89.76;97384.69;29395;235;64013;-64
2022/12/01 01:58:40;;;;;;;0.60;0.60;;;;;;;2.01;89.94;97382.59;29396;204;63008;-66
2022/12/01 01:59:16;;;;;;;0.60;0.60;;;;;;;2.01;89.85;97385.28;29396;247;63009;-66
2022/12/01 01:59:52;;;;;;;0.60;0.60;;;;;;;1.98;89.88;97383.03;29396;288;63000;-65
2022/12/01 02:00:24;;;;;;;0.62;0.62;;;;;;;1.98;89.52;97380.38;29396;203;63009;-65
2022/12/01 02:00:56;;;;;;;0.70;0.70;;;;;;;1.98;89.61;97385.72;29396;265;63004;-66
2022/12/01 02:01:27;;;;;;;0.70;0.70;;;;;;;1.99;89.76;97379.31;29396;233;63009;-66
2022/12/01 02:02:07;;;;;;;0.50;0.50;;;;;;;1.99;89.76;97383.88;29396;216;63005;-67
2022/12/01 02:02:43;;;;;;;1.60;1.60;;;;;;;2.01;89.60;97384.47;29396;272;63009;-67
2022/12/01 02:03:18;;;;;;;0.60;0.60;;;;;;;2.01;89.25;97377.25;29395;247;64009;-66
2022/12/01 02:03:52;;;;;;;0.70;0.70;;;;;;;2.03;89.11;97381.56;29396;243;63009;-63
2022/12/01 02:04:25;;;;;;;0.60;0.60;;;;;;;2.03;89.12;97384.22;29396;207;63005;-65
2022/12/01 02:05:01;;;;;;;0.65;0.65;;;;;;;2.01;88.78;97382.59;29396;213;63009;-66
2022/12/01 02:05:34;;;;;;;0.60;0.60;;;;;;;2.03;89.54;97379.69;29375;221;63004;-65
2022/12/01 02:06:07;;;;;;;0.60;0.60;;;;;;;2.03;89.32;97385.06;29375;227;63009;-65
2022/12/01 02:06:38;;;;;;;0.60;0.60;;;;;;;2.03;89.97;97378.87;29396;199;63013;-67
2022/12/01 02:07:15;;;;;;;0.52;0.52;;;;;;;2.03;89.48;97381.56;29396;218;63009;-66
2022/12/01 02:07:47;;;;;;;0.60;0.60;;;;;;;2.00;88.87;97380.97;29396;325;63004;-67
2022/12/01 02:08:18;;;;;;;0.60;0.60;;;;;;;2.00;89.39;97383.62;29373;221;64013;-66
2022/12/01 02:08:50;;;;;;;0.60;0.60;;;;;;;1.99;89.53;97379.31;29396;326;63004;-64
2022/12/01 02:09:24;;;;;;;0.70;0.70;;;;;;;1.95;88.96;97372.78;29375;205;63009;-66
2022/12/01 02:09:56;;;;;;;0.60;0.60;;;;;;;1.99;89.00;97381.19;29396;249;63005;-66
2022/12/01 02:11:04;;;;;;;0.70;0.70;;;;;;;1.99;88.95;97379.31;29396;225;63009;-67
2022/12/01 02:12:15;;;;;;;0.60;0.60;;;;;;;2.04;88.66;97375.16;29396;227;63005;-65
2022/12/01 02:13:18;;;;;;;1.02;1.02;;;;;;;2.07;88.15;97380.06;29374;204;64009;-66
2022/12/01 02:14:23;;;;;;;0.60;0.60;;;;;;;2.06;87.54;97379.25;29395;326;64009;-66
2022/12/01 02:15:43;;;;;;;0.60;0.60;;;;;;;2.06;88.09;97381.09;29375;270;63009;-65
2022/12/01 02:16:54;;;;;;;0.70;0.70;;;;;;;2.04;88.39;97375.16;29373;302;63004;-65
2022/12/01 02:18:10;;;;;;;0.70;0.70;;;;;;;2.05;88.19;97379.47;29374;246;63009;-62
2022/12/01 02:19:03;;;;;;;0.70;0.70;;;;;;;2.05;87.73;97376.78;29373;328;63005;-63
2022/12/01 02:20:21;;;;;;;0.60;0.60;;;;;;;2.00;87.63;97380.16;29371;260;64013;-63
2022/12/01 02:21:50;;;;;;;0.60;0.60;;;;;;;1.99;87.76;97371.28;29373;245;63004;-65
2022/12/01 02:22:37;;;;;;;0.68;0.68;;;;;;;1.99;87.29;97373.97;29373;237;63009;-66
2022/12/01 02:23:47;;;;;;;0.65;0.65;;;;;;;1.96;87.83;97374.44;29372;236;64004;-66
2022/12/01 02:24:49;;;;;;;0.60;0.60;;;;;;;1.95;87.90;97372.78;29395;222;63027;-64
2022/12/01 02:25:33;;;;;;;0.70;0.70;;;;;;;1.95;87.86;97375.47;29371;340;64014;-67
2022/12/01 02:26:35;;;;;;;0.68;0.68;;;;;;;1.96;88.21;97369.06;29373;227;63005;-63
2022/12/01 02:27:44;;;;;;;0.70;0.70;;;;;;;2.00;88.22;97375.62;29395;359;63009;-66
2022/12/01 02:28:54;;;;;;;0.60;0.60;;;;;;;1.97;87.91;97367.22;29395;295;63004;-63
2022/12/01 02:30:12;;;;;;;0.70;0.70;;;;;;;1.93;87.94;97364.16;29373;309;63009;-65
2022/12/01 02:31:00;;;;;;;0.60;0.60;;;;;;;1.90;87.67;97369.97;29371;349;64008;-66
2022/12/01 02:32:08;;;;;;;0.60;0.60;;;;;;;1.90;87.67;97369.97;29373;295;63009;-65
2022/12/01 02:33:18;;;;;;;0.62;0.62;;;;;;;1.91;87.64;97376.97;29373;251;63012;-63
2022/12/01 02:34:01;;;;;;;0.68;0.68;;;;;;;1.92;87.90;97367.06;29355;502;125005;-64
2022/12/01 02:35:04;;;;;;;0.60;0.60;;;;;;;1.93;87.45;97369.53;29373;338;63009;-66
2022/12/01 02:36:15;;;;;;;0.70;0.70;;;;;;;1.91;87.35;97366.25;29373;261;63009;-63
2022/12/01 02:37:14;;;;;;;0.70;0.70;;;;;;;1.87;88.19;97367.75;29371;256;64013;-65
2022/12/01 02:38:21;;;;;;;0.60;0.60;;;;;;;1.88;88.48;97365.88;29373;226;63007;-66
2022/12/01 02:39:03;;;;;;;0.62;0.62;;;;;;;1.89;88.35;97362.16;29373;274;63008;-66
2022/12/01 02:39:48;;;;;;;0.60;0.60;;;;;;;1.90;88.78;97364.63;29373;279;63005;-66
2022/12/01 02:40:31;;;;;;;0.60;0.60;;;;;;;1.89;89.04;97362.16;29373;275;63017;-67
2022/12/01 02:41:23;;;;;;;0.60;0.60;;;;;;;1.90;89.58;97363.81;29373;199;63005;-64
2022/12/01 02:42:10;;;;;;;0.70;0.70;;;;;;;1.89;90.02;97372.88;29393;214;64013;-66
2022/12/01 02:43:26;;;;;;;0.60;0.60;;;;;;;1.84;89.62;97370.87;29395;200;63005;-66
2022/12/01 02:44:26;;;;;;;0.70;0.70;;;;;;;1.85;89.72;97372.50;29373;225;63009;-64
2022/12/01 02:45:01;;;;;;;0.68;0.68;;;;;;;1.89;89.46;97367.53;29373;199;63004;-65
2022/12/01 02:45:55;;;;;;;0.70;0.70;;;;;;;1.87;89.28;97367.75;29373;284;63015;-66
2022/12/01 02:46:42;;;;;;;0.60;0.60;;;;;;;1.87;89.23;97370.41;29371;219;64008;-67
2022/12/01 02:47:16;;;;;;;0.70;0.70;;;;;;;1.86;89.27;97374.13;29373;249;63009;-65
2022/12/01 02:47:51;;;;;;;0.60;0.60;;;;;;;1.86;89.51;97368.78;29373;203;63018;-67
2022/12/01 02:48:33;;;;;;;0.70;0.70;;;;;;;1.84;89.24;97370.87;29373;342;63009;-66
2022/12/01 02:49:12;;;;;;;0.70;0.70;;;;;;;1.84;89.42;97376.22;29373;210;63005;-65
2022/12/01 02:49:50;;;;;;;0.70;0.70;;;;;;;1.84;89.39;97376.22;29371;211;64013;-63
2022/12/01 02:50:23;;;;;;;0.60;0.60;;;;;;;1.84;89.34;97368.19;29373;247;63004;-65
2022/12/01 02:50:57;;;;;;;0.70;0.70;;;;;;;1.85;89.62;97372.50;29371;271;64013;-64
2022/12/01 02:51:35;;;;;;;0.70;0.70;;;;;;;1.86;89.95;97367.97;29371;272;64009;-63
2022/12/01 02:52:12;;;;;;;0.70;0.70;;;;;;;1.87;89.61;97374.97;29373;252;63009;-65
2022/12/01 02:52:44;;;;;;;0.60;0.60;;;;;;;1.87;89.47;97365.06;29373;333;63004;-64
2022/12/01 02:53:18;;;;;;;0.70;0.70;;;;;;;1.86;89.78;97367.97;29373;228;63008;-66
2022/12/01 02:53:50;;;;;;;0.60;0.60;;;;;;;1.84;88.90;97365.50;29373;239;63005;-64
2022/12/01 02:54:23;;;;;;;0.68;0.68;;;;;;;1.84;89.12;97368.19;29373;207;63005;-62
2022/12/01 02:54:55;;;;;;;0.60;0.60;;;;;;;1.85;89.31;97371.69;29371;296;64009;-63
2022/12/01 02:55:27;;;;;;;0.60;0.60;;;;;;;1.85;89.04;97361.81;29373;328;63009;-63
2022/12/01 02:55:58;;;;;;;0.70;0.70;;;;;;;1.87;89.55;97367.75;29373;217;63005;-65
2022/12/01 02:56:30;;;;;;;0.62;0.62;;;;;;;1.86;88.96;97363.44;29373;269;63009;-63
2022/12/01 02:57:03;;;;;;;0.60;0.60;;;;;;;1.85;88.64;97372.50;29373;214;63005;-69
2022/12/01 02:57:34;;;;;;;2.60;2.25;;;;;;;1.86;88.75;97366.09;29373;319;63009;-65
2022/12/01 02:58:13;;;;;;;0.68;0.68;;;;;;;1.86;88.16;97368.78;29373;265;63004;-65